Home > Products > Valid Products > TAF

000
FTUS44 KMAF 012300 RRA
TAFMAF
TAF
KMAF 012347Z 0200/0224 17008KT P6SM FEW150
     FM020100 17017G23KT P6SM SKC
     FM021000 17010KT P6SM SKC
     FM021400 17014G22KT P6SM FEW150=



000
FTUS44 KMAF 011800 AAA
TAFMAF
TAF AMD
KMAF 011817Z 0118/0218 20011G18KT P6SM FEW100
     FM020100 17017G23KT P6SM SKC
     FM021000 17010KT P6SM SKC=



000
FTUS44 KMAF 011700
TAFMAF
TAF
KMAF 011734Z 0118/0218 18012G20KT P6SM FEW100
     FM020100 17017G23KT P6SM SKC
     FM021000 17010KT P6SM SKC=



000
FTUS44 KMAF 011400 AAA
TAFMAF
TAF AMD
KMAF 011424Z 0114/0212 18014G20KT P6SM SKC=



000
FTUS44 KMAF 011100
TAFMAF
TAF
KMAF 011120Z 0112/0212 19010KT P6SM SKC=



000
FTUS44 KMAF 010500
TAFMAF
TAF
KMAF 010520Z 0106/0206 17014G20KT P6SM SKC=



000
FTUS44 KMAF 312300
TAFMAF
TAF
KMAF 312336Z 0100/0124 17010KT P6SM SCT150
     FM010200 17014G20KT P6SM SKC
     FM010900 18012KT P6SM SKC=



000
FTUS44 KMAF 311800 AAA
TAFMAF
TAF AMD
KMAF 311838Z 3119/0118 19010G18KT P6SM FEW100
     FM010000 17015G22KT P6SM SKC
     FM010900 18012KT P6SM SKC=



000
FTUS44 KMAF 311700
TAFMAF
TAF
KMAF 311721Z 3118/0118 17012G20KT P6SM SCT100
     FM010000 17015G22KT P6SM SKC
     FM010900 18012KT P6SM SKC=



000
FTUS44 KMAF 311100
TAFMAF
TAF
KMAF 311120Z 3112/0112 18010KT P6SM SCT250=



000
FTUS44 KMAF 310500
TAFMAF
TAF
KMAF 310520Z 3106/0106 16010KT P6SM SCT250=



000
FTUS44 KMAF 302300
TAFMAF
TAF
KMAF 302320Z 3100/3124 18010KT P6SM SCT100=



000
FTUS44 KMAF 301700
TAFMAF
TAF
KMAF 301720Z 3018/3118 12006KT P6SM SCT050
     FM310100 17007KT P6SM SKC
     FM311200 19010KT P6SM SKC=



000
FTUS44 KMAF 301100
TAFMAF
TAF
KMAF 301125Z 3012/3112 12010KT P6SM SCT080=



000
FTUS44 KMAF 300500
TAFMAF
TAF
KMAF 300521Z 3006/3106 12010KT P6SM SCT080=



    US Dept of Commerce
    National Oceanic and Atmospheric Administration
    National Weather Service
    1325 East West Highway
    Silver Spring, MD 20910
    Page Author: NWS Internet Services Team
Disclaimer
Information Quality
Credits
Glossary
Privacy Policy
Freedom of Information Act (FOIA)
About Us
Career Opportunities